Terminal Aerodrome Forecast
Issued by NWS Bismarck, ND

Home | Current Version | Previous Version | Graphics & Text | Print | Product List | Glossary On
Versions: 1 2 3 4 5 6 7 8 9 10 11 12 13 14
000
FTUS43 KBIS 090525
TAFISN
TAF
KISN 090525Z 0906/1006 VRB03KT P6SM OVC050
     FM091500 30004KT 5SM -SN BR OVC025
     FM091800 VRB03KT 2SM -SN BR OVC010
     FM100000 00000KT P6SM OVC020=

USA.gov is the U.S. government's official web portal to all federal, state and local government web resources and services.